Time;durP1;ratioP1;P1;durP2;ratioP2;P2;SDS_P1;SDS_P2;PMS_P1;PMS_P2;Temp;Humidity;BMP_temperature;BMP_pressure;BME280_temperature;BME280_humidity;BME280_pressure;Samples;Min_cycle;Max_cycle;Signal;HPM_P1;HPM_P2
2022/04/23 00:00:43;;;;;;;0.93;0.90;;;13.80;99.90;;;;;;4851434;29;20450;-66
2022/04/23 00:03:14;;;;;;;1.23;0.77;;;13.90;99.90;;;;;;4849358;29;20935;-66
2022/04/23 00:05:45;;;;;;;1.57;0.90;;;14.30;99.90;;;;;;4849817;29;20546;-66
2022/04/23 00:08:16;;;;;;;1.57;0.53;;;14.60;99.90;;;;;;4840858;29;20470;-66
2022/04/23 00:10:46;;;;;;;0.87;0.63;;;15.00;99.90;;;;;;4852526;29;20488;-66
2022/04/23 00:13:19;;;;;;;0.50;0.47;;;15.20;99.90;;;;;;4849109;29;20481;-66
2022/04/23 00:15:50;;;;;;;0.63;0.40;;;15.50;99.90;;;;;;4850016;29;20817;-66
2022/04/23 00:18:20;;;;;;;0.93;0.80;;;15.50;99.90;;;;;;4849380;29;20516;-66
2022/04/23 00:20:51;;;;;;;0.63;0.63;;;15.50;99.90;;;;;;4846109;29;20493;-67
2022/04/23 00:23:22;;;;;;;1.03;1.03;;;15.40;99.90;;;;;;4839541;29;20493;-65
2022/04/23 00:25:54;;;;;;;1.57;0.70;;;15.40;99.90;;;;;;4837427;29;20840;-66
2022/04/23 00:28:27;;;;;;;0.90;0.50;;;15.30;99.90;;;;;;4850973;29;20462;-67
2022/04/23 00:30:58;;;;;;;0.80;0.80;;;15.10;99.90;;;;;;4844881;29;20463;-66
2022/04/23 00:33:29;;;;;;;1.27;0.90;;;15.00;99.90;;;;;;4850165;29;20478;-66
2022/04/23 00:36:00;;;;;;;1.27;1.17;;;15.00;99.90;;;;;;4842304;29;21308;-66
2022/04/23 00:38:33;;;;;;;0.90;0.90;;;15.20;99.90;;;;;;4845413;29;20498;-66
2022/04/23 00:41:05;;;;;;;1.00;0.80;;;15.40;99.90;;;;;;4844875;29;20449;-66
2022/04/23 00:43:37;;;;;;;1.53;0.83;;;15.50;99.90;;;;;;4843512;29;20472;-67
2022/04/23 00:46:08;;;;;;;1.23;1.13;;;15.60;99.90;;;;;;4838292;29;20471;-66
2022/04/23 00:48:39;;;;;;;2.07;1.57;;;15.60;99.90;;;;;;4848000;29;20482;-66
2022/04/23 00:51:12;;;;;;;5.27;4.80;;;15.60;99.90;;;;;;4850938;29;20462;-66
2022/04/23 00:53:43;;;;;;;6.20;5.50;;;15.70;99.90;;;;;;4839484;29;20459;-66
2022/04/23 00:56:14;;;;;;;8.67;7.90;;;15.70;99.90;;;;;;4847025;29;20466;-66
2022/04/23 00:58:47;;;;;;;3.90;3.50;;;15.70;99.90;;;;;;4851288;29;20502;-66
2022/04/23 01:01:19;;;;;;;2.83;2.43;;;15.60;99.90;;;;;;4850570;29;20488;-66
2022/04/23 01:03:50;;;;;;;2.13;1.93;;;15.50;99.90;;;;;;4843247;29;20501;-66
2022/04/23 01:06:23;;;;;;;1.70;1.60;;;15.50;99.90;;;;;;4845856;29;20582;-66
2022/04/23 01:08:54;;;;;;;1.70;1.60;;;15.50;99.90;;;;;;4850076;29;20454;-66
2022/04/23 01:11:26;;;;;;;2.60;2.40;;;15.40;99.90;;;;;;4844111;29;20496;-67
2022/04/23 01:13:58;;;;;;;3.30;2.90;;;15.40;99.90;;;;;;4838472;29;20470;-67
2022/04/23 01:16:29;;;;;;;3.40;3.20;;;15.40;99.90;;;;;;4846975;29;20466;-69
2022/04/23 01:19:00;;;;;;;2.30;2.10;;;15.50;99.90;;;;;;4850479;29;20529;-70
2022/04/23 01:21:33;;;;;;;2.90;2.03;;;15.40;99.90;;;;;;4850752;29;20483;-67
2022/04/23 01:24:06;;;;;;;2.80;2.60;;;15.50;99.90;;;;;;4850556;29;20462;-69
2022/04/23 01:26:37;;;;;;;3.43;3.23;;;15.40;99.90;;;;;;4849971;29;20558;-69
2022/04/23 01:29:08;;;;;;;79.10;70.73;;;15.40;99.90;;;;;;4850182;29;20849;-70
2022/04/23 01:31:39;;;;;;;30.53;27.47;;;15.40;99.90;;;;;;4835386;29;20461;-69
2022/04/23 01:34:10;;;;;;;10.10;9.20;;;15.30;99.90;;;;;;4837714;29;20470;-70
2022/04/23 01:36:42;;;;;;;9.20;8.40;;;15.30;99.90;;;;;;4849432;29;20466;-68
2022/04/23 01:39:13;;;;;;;6.00;4.90;;;15.20;99.90;;;;;;4849415;29;20498;-68
2022/04/23 01:41:47;;;;;;;4.30;3.20;;;15.10;99.90;;;;;;4840280;29;20533;-69
2022/04/23 01:44:17;;;;;;;3.90;3.23;;;15.00;99.90;;;;;;4849785;29;20462;-68
2022/04/23 01:46:48;;;;;;;28.40;19.50;;;14.80;99.90;;;;;;4850213;29;20474;-67
2022/04/23 01:49:19;;;;;;;33.70;25.27;;;14.60;99.90;;;;;;4845486;29;20466;-67
2022/04/23 01:51:51;;;;;;;4.40;3.53;;;14.50;99.90;;;;;;4842138;29;20843;-68
2022/04/23 01:54:22;;;;;;;3.63;2.00;;;14.00;99.90;;;;;;4843317;29;20484;-68
2022/04/23 01:56:53;;;;;;;54.37;48.83;;;13.90;99.90;;;;;;4836542;29;20498;-67
2022/04/23 01:59:23;;;;;;;5.90;5.40;;;13.70;99.90;;;;;;4837910;29;20506;-67
2022/04/23 02:01:54;;;;;;;3.23;2.63;;;13.50;99.90;;;;;;4847651;29;20478;-67
2022/04/23 02:04:26;;;;;;;3.57;2.47;;;13.20;99.90;;;;;;4833631;29;20474;-66
2022/04/23 02:06:58;;;;;;;3.73;3.03;;;13.10;99.90;;;;;;4846312;29;20473;-66
2022/04/23 02:09:29;;;;;;;3.23;2.93;;;13.20;99.90;;;;;;4839315;29;20474;-66
2022/04/23 02:12:07;;;;;;;4.80;2.17;;;13.20;99.90;;;;;;4846917;29;20494;-69
2022/04/23 02:14:38;;;;;;;5.13;2.70;;;13.20;99.90;;;;;;4845022;29;20470;-67
2022/04/23 02:17:09;;;;;;;4.17;2.60;;;13.20;99.90;;;;;;4846861;29;20468;-66
2022/04/23 02:19:40;;;;;;;3.20;2.60;;;13.20;99.90;;;;;;4844151;29;20505;-65
2022/04/23 02:22:12;;;;;;;3.43;2.40;;;13.10;99.90;;;;;;4841103;29;20479;-68
2022/04/23 02:24:44;;;;;;;3.13;2.60;;;13.20;99.90;;;;;;4847969;29;20457;-65
2022/04/23 02:27:14;;;;;;;3.33;2.40;;;13.10;99.90;;;;;;4832998;29;20466;-66
2022/04/23 02:29:45;;;;;;;5.40;2.73;;;13.10;99.90;;;;;;4844730;29;20462;-65
2022/04/23 02:32:16;;;;;;;4.70;3.20;;;13.10;99.90;;;;;;4851056;29;20466;-65
2022/04/23 02:34:47;;;;;;;3.60;3.03;;;13.10;99.90;;;;;;4850942;29;20474;-63
2022/04/23 02:37:19;;;;;;;4.40;2.87;;;13.10;99.90;;;;;;4845571;29;20477;-64
2022/04/23 02:39:50;;;;;;;3.80;2.40;;;13.10;99.90;;;;;;4836431;29;20500;-66
2022/04/23 02:42:22;;;;;;;5.80;3.10;;;13.20;99.90;;;;;;4833347;29;20462;-65
2022/04/23 02:44:53;;;;;;;4.90;3.60;;;13.00;99.90;;;;;;4838486;29;20541;-64
2022/04/23 02:47:25;;;;;;;3.30;2.77;;;12.90;99.90;;;;;;4852928;29;20466;-64
2022/04/23 02:49:56;;;;;;;4.20;3.43;;;12.90;99.90;;;;;;4853291;29;20482;-64
2022/04/23 02:52:29;;;;;;;4.83;2.60;;;13.00;99.90;;;;;;4854231;29;20474;-64
2022/04/23 02:54:59;;;;;;;2.43;2.23;;;12.90;99.90;;;;;;4846074;29;20475;-63
2022/04/23 02:57:30;;;;;;;6.83;3.47;;;12.80;99.90;;;;;;4844435;29;20469;-64
2022/04/23 03:00:01;;;;;;;3.13;2.57;;;12.80;99.90;;;;;;4847008;29;20502;-64
2022/04/23 03:02:36;;;;;;;3.60;2.90;;;12.80;99.90;;;;;;4846162;29;20465;-63
2022/04/23 03:05:09;;;;;;;3.77;3.00;;;12.70;99.90;;;;;;4849929;29;20521;-63
2022/04/23 03:07:42;;;;;;;5.60;3.00;;;12.70;99.90;;;;;;4845630;29;20501;-63
2022/04/23 03:10:14;;;;;;;5.93;3.50;;;12.70;99.90;;;;;;4840292;29;20495;-63
2022/04/23 03:12:45;;;;;;;3.87;3.30;;;12.60;99.90;;;;;;4838903;29;20471;-63
2022/04/23 03:15:17;;;;;;;4.37;3.33;;;12.70;99.90;;;;;;4848428;29;20466;-63
2022/04/23 03:17:48;;;;;;;3.93;3.00;;;12.70;99.90;;;;;;4846416;29;20540;-63
2022/04/23 03:20:21;;;;;;;4.67;4.10;;;12.60;99.90;;;;;;4846908;29;20494;-62
2022/04/23 03:22:53;;;;;;;7.07;6.37;;;12.60;99.90;;;;;;4848084;29;20469;-63
2022/04/23 03:25:24;;;;;;;7.90;6.30;;;12.60;99.90;;;;;;4847475;29;20466;-63
2022/04/23 03:27:55;;;;;;;8.57;6.00;;;12.60;99.90;;;;;;4844545;29;20459;-62
2022/04/23 03:30:26;;;;;;;8.40;6.40;;;12.50;99.90;;;;;;4851283;29;20802;-63
2022/04/23 03:32:58;;;;;;;6.97;6.27;;;12.50;99.90;;;;;;4847972;29;20814;-62
2022/04/23 03:35:29;;;;;;;7.30;6.60;;;12.50;99.90;;;;;;4850845;29;20486;-62
2022/04/23 03:38:03;;;;;;;6.57;5.83;;;12.50;99.90;;;;;;4841004;29;20470;-63
2022/04/23 03:40:34;;;;;;;8.23;6.13;;;12.40;99.90;;;;;;4847640;29;20602;-63
2022/04/23 03:43:05;;;;;;;6.57;5.87;;;12.40;99.90;;;;;;4842786;29;20558;-63
2022/04/23 03:45:37;;;;;;;7.50;6.27;;;12.30;99.90;;;;;;4845213;29;20865;-63
2022/04/23 03:48:09;;;;;;;6.03;5.50;;;12.40;99.90;;;;;;4844078;29;20458;-63
2022/04/23 03:50:39;;;;;;;5.47;4.80;;;12.40;99.90;;;;;;4840597;29;20478;-63
2022/04/23 03:53:12;;;;;;;6.87;5.10;;;12.40;99.90;;;;;;4849598;29;20838;-63
2022/04/23 03:55:43;;;;;;;5.70;5.13;;;12.30;99.90;;;;;;4837527;29;20498;-63
2022/04/23 03:58:18;;;;;;;7.73;5.90;;;12.30;99.90;;;;;;4835369;29;20466;-61
2022/04/23 04:00:48;;;;;;;8.13;4.70;;;12.30;99.90;;;;;;4848754;29;20522;-63
2022/04/23 04:03:19;;;;;;;5.80;5.20;;;12.20;99.90;;;;;;4846410;29;20458;-63
2022/04/23 04:05:50;;;;;;;7.50;4.80;;;12.20;99.90;;;;;;4836020;29;20460;-63
2022/04/23 04:08:24;;;;;;;6.60;4.80;;;12.10;99.90;;;;;;4836222;29;20460;-62
2022/04/23 04:10:55;;;;;;;7.10;5.70;;;12.10;99.90;;;;;;4851647;29;20795;-63
2022/04/23 04:13:27;;;;;;;5.60;4.70;;;12.10;99.90;;;;;;4841693;29;20458;-62
2022/04/23 04:15:58;;;;;;;9.53;5.93;;;12.00;99.90;;;;;;4839977;29;20538;-63
2022/04/23 04:18:29;;;;;;;6.87;5.20;;;11.90;99.90;;;;;;4847118;29;20495;-63
2022/04/23 04:21:00;;;;;;;8.17;4.70;;;11.80;99.90;;;;;;4852201;29;20508;-63
2022/04/23 04:23:32;;;;;;;11.73;10.53;;;11.80;99.90;;;;;;4840367;29;20467;-63
2022/04/23 04:26:03;;;;;;;11.13;6.50;;;11.80;99.90;;;;;;4839521;29;20461;-64
2022/04/23 04:28:34;;;;;;;8.20;6.07;;;11.90;99.90;;;;;;4846243;29;20466;-63
2022/04/23 04:33:52;;;;;;;8.70;6.13;;;11.80;99.90;;;;;;4847762;29;20475;-64
2022/04/23 04:36:23;;;;;;;5.03;4.53;;;11.70;99.90;;;;;;4841505;29;20474;-64
2022/04/23 04:38:55;;;;;;;7.37;5.87;;;11.60;99.90;;;;;;4849925;29;20488;-64
2022/04/23 04:41:29;;;;;;;7.30;6.00;;;11.50;99.90;;;;;;4851540;29;20544;-63
2022/04/23 04:44:00;;;;;;;8.90;6.80;;;11.50;99.90;;;;;;4852690;29;20458;-63
2022/04/23 04:46:31;;;;;;;7.53;6.83;;;11.40;99.90;;;;;;4852531;29;20505;-63
2022/04/23 04:49:02;;;;;;;7.73;6.93;;;11.40;99.90;;;;;;4848086;29;20470;-63
2022/04/23 04:51:36;;;;;;;8.07;7.27;;;11.30;99.90;;;;;;4845049;29;20502;-63
2022/04/23 04:54:09;;;;;;;9.60;8.07;;;11.20;99.90;;;;;;4840347;29;20822;-63
2022/04/23 04:56:39;;;;;;;10.47;7.73;;;11.10;99.90;;;;;;4841416;29;20503;-64
2022/04/23 04:59:10;;;;;;;9.33;7.50;;;11.10;99.90;;;;;;4843920;29;20459;-64
2022/04/23 05:01:41;;;;;;;11.50;8.07;;;11.00;99.90;;;;;;4851158;29;20498;-63
2022/04/23 05:04:12;;;;;;;10.90;7.83;;;10.90;99.90;;;;;;4851390;29;20596;-63
2022/04/23 05:06:43;;;;;;;8.20;7.37;;;10.90;99.90;;;;;;4851829;29;20545;-64
2022/04/23 05:09:16;;;;;;;9.87;8.07;;;10.80;99.90;;;;;;4845171;29;20796;-63
2022/04/23 05:11:47;;;;;;;10.87;7.87;;;10.70;99.90;;;;;;4849757;29;20505;-63
2022/04/23 05:14:18;;;;;;;10.50;8.30;;;10.70;99.90;;;;;;4848411;29;20447;-62
2022/04/23 05:16:48;;;;;;;11.80;8.20;;;10.70;99.90;;;;;;4833769;29;20471;-63
2022/04/23 05:19:20;;;;;;;9.70;8.77;;;10.60;99.90;;;;;;4838120;29;20495;-63
2022/04/23 05:21:51;;;;;;;11.03;8.10;;;10.60;99.90;;;;;;4850647;29;20502;-63
2022/04/23 05:24:24;;;;;;;14.67;9.17;;;10.60;99.90;;;;;;4832824;29;20459;-63
2022/04/23 05:26:55;;;;;;;11.80;8.07;;;10.50;99.90;;;;;;4836121;29;20674;-63
2022/04/23 05:29:26;;;;;;;8.70;7.77;;;10.40;99.90;;;;;;4845514;29;20486;-62
2022/04/23 05:31:57;;;;;;;9.30;8.40;;;10.40;99.90;;;;;;4833851;29;20789;-63
2022/04/23 05:34:28;;;;;;;10.70;8.50;;;10.30;99.90;;;;;;4833466;29;20474;-62
2022/04/23 05:36:59;;;;;;;8.70;7.80;;;10.30;99.90;;;;;;4841361;29;20966;-63
2022/04/23 05:39:31;;;;;;;10.77;8.20;;;10.30;99.90;;;;;;4843785;29;20462;-63
2022/04/23 05:42:02;;;;;;;10.00;8.77;;;10.30;99.90;;;;;;4836278;29;20486;-64
2022/04/23 05:44:33;;;;;;;9.27;8.27;;;10.10;99.90;;;;;;4840502;29;20451;-63
2022/04/23 05:47:04;;;;;;;12.43;7.80;;;10.00;99.90;;;;;;4851218;29;20550;-63
2022/04/23 05:49:35;;;;;;;9.13;8.23;;;10.00;99.90;;;;;;4844478;29;20463;-63
2022/04/23 05:52:20;;;;;;;13.83;8.70;;;10.00;99.90;;;;;;4843918;29;20794;-63
2022/04/23 05:54:53;;;;;;;12.20;9.67;;;9.90;99.90;;;;;;4843742;29;20479;-63
2022/04/23 05:57:24;;;;;;;10.43;9.10;;;9.90;99.90;;;;;;4846226;29;20462;-64
2022/04/23 05:59:57;;;;;;;8.37;7.50;;;9.90;99.90;;;;;;4841092;29;20465;-63
2022/04/23 06:02:28;;;;;;;10.20;8.43;;;9.80;99.90;;;;;;4844112;29;20527;-64
2022/04/23 06:04:59;;;;;;;8.67;7.77;;;9.80;99.90;;;;;;4837810;29;20474;-64
2022/04/23 06:07:30;;;;;;;11.77;9.17;;;9.80;99.90;;;;;;4845484;29;20484;-62
2022/04/23 06:10:02;;;;;;;15.63;8.83;;;9.80;99.90;;;;;;4842881;29;20466;-62
2022/04/23 06:12:34;;;;;;;11.53;8.83;;;9.80;99.90;;;;;;4849820;29;20489;-62
2022/04/23 06:15:05;;;;;;;8.80;7.90;;;9.80;99.90;;;;;;4849680;29;20472;-62
2022/04/23 06:17:36;;;;;;;8.40;7.47;;;9.70;99.90;;;;;;4850122;29;20528;-62
2022/04/23 06:20:07;;;;;;;8.37;7.60;;;9.70;99.90;;;;;;4841771;29;20471;-62
2022/04/23 06:22:38;;;;;;;9.47;7.50;;;9.80;99.90;;;;;;4845961;29;20506;-63
2022/04/23 06:25:11;;;;;;;8.70;7.50;;;9.80;99.90;;;;;;4852870;29;20542;-63
2022/04/23 06:27:42;;;;;;;10.15;8.45;;;9.70;99.90;;;;;;4844819;29;20806;-63
2022/04/23 06:30:15;;;;;;;10.20;8.37;;;9.80;99.90;;;;;;4848811;29;20694;-62
2022/04/23 06:32:46;;;;;;;9.73;8.77;;;9.90;99.90;;;;;;4842171;29;20488;-62
2022/04/23 06:35:17;;;;;;;9.60;7.83;;;10.00;99.90;;;;;;4846818;29;20478;-62
2022/04/23 06:37:48;;;;;;;10.10;8.60;;;10.00;99.90;;;;;;4839551;29;20463;-62
2022/04/23 06:40:20;;;;;;;11.60;8.43;;;9.90;99.90;;;;;;4836887;29;20475;-62
2022/04/23 06:42:51;;;;;;;8.30;7.60;;;9.90;99.90;;;;;;4854162;29;20825;-62
2022/04/23 06:45:22;;;;;;;9.30;7.20;;;10.00;99.90;;;;;;4853296;29;20537;-62
2022/04/23 06:48:04;;;;;;;11.00;7.97;;;9.90;99.90;;;;;;4850512;29;20497;-62
2022/04/23 06:50:35;;;;;;;9.60;8.27;;;9.80;99.90;;;;;;4845933;29;20480;-62
2022/04/23 06:53:06;;;;;;;8.80;7.25;;;9.80;99.90;;;;;;4846818;29;20493;-62
2022/04/23 06:55:38;;;;;;;9.47;7.63;;;9.80;99.90;;;;;;4836453;29;20222;-63
2022/04/23 06:58:10;;;;;;;9.25;7.63;;;9.70;99.90;;;;;;4846047;29;20588;-63
2022/04/23 07:00:41;;;;;;;8.03;7.33;;;9.60;99.90;;;;;;4846285;29;20326;-62
2022/04/23 07:03:12;;;;;;;9.30;7.82;;;9.50;99.90;;;;;;4837240;29;20506;-63
2022/04/23 07:05:43;;;;;;;9.00;7.97;;;9.40;99.90;;;;;;4838314;29;20288;-63
2022/04/23 07:08:14;;;;;;;8.00;7.30;;;9.30;99.90;;;;;;4839021;29;20481;-63
2022/04/23 07:10:46;;;;;;;11.07;8.30;;;9.20;99.90;;;;;;4851687;29;20498;-63
2022/04/23 07:13:17;;;;;;;10.00;8.63;;;9.10;99.90;;;;;;4853590;29;20538;-63
2022/04/23 07:15:48;;;;;;;11.45;7.30;;;9.20;99.90;;;;;;4849725;29;20585;-63
2022/04/23 07:18:19;;;;;;;8.90;7.40;;;9.10;99.90;;;;;;4850075;29;20236;-63
2022/04/23 07:20:50;;;;;;;10.13;8.07;;;8.90;99.90;;;;;;4844304;29;20511;-63
2022/04/23 07:26:10;;;;;;;8.68;7.78;;;9.00;99.90;;;;;;4840599;29;20321;-63
2022/04/23 07:28:41;;;;;;;8.87;7.63;;;9.00;99.90;;;;;;4840211;29;20610;-64
2022/04/23 07:31:12;;;;;;;10.10;7.97;;;8.90;99.90;;;;;;4851804;29;20466;-62
2022/04/23 07:39:18;;;;;;;10.70;7.10;;;8.80;99.90;;;;;;4851788;29;20481;-63
2022/04/23 07:41:53;;;;;;;8.98;7.80;;;8.80;99.90;;;;;;4847222;29;20213;-63
2022/04/23 07:44:24;;;;;;;8.55;7.32;;;8.80;99.90;;;;;;4850890;29;20213;-63
2022/04/23 07:46:55;;;;;;;9.87;7.03;;;8.70;99.90;;;;;;4851089;29;20206;-62
2022/04/23 07:49:26;;;;;;;9.13;7.10;;;8.80;99.90;;;;;;4851487;29;20565;-63
2022/04/23 07:51:57;;;;;;;11.43;7.78;;;8.80;99.90;;;;;;4851596;29;20818;-63
2022/04/23 07:54:28;;;;;;;9.57;7.05;;;8.80;99.90;;;;;;4850493;29;20224;-62
2022/04/23 07:57:00;;;;;;;8.57;7.28;;;8.90;99.90;;;;;;4852723;29;20213;-63
2022/04/23 07:59:32;;;;;;;9.68;7.03;;;8.90;99.90;;;;;;4851193;29;20219;-63
2022/04/23 08:02:05;;;;;;;7.72;6.95;;;8.90;99.90;;;;;;4844564;29;20206;-63
2022/04/23 08:04:38;;;;;;;10.63;7.20;;;8.90;99.90;;;;;;4848840;29;20661;-62
2022/04/23 08:07:08;;;;;;;8.55;7.60;;;8.90;99.90;;;;;;4849124;29;20577;-62
2022/04/23 08:09:39;;;;;;;9.45;7.57;;;8.90;99.90;;;;;;4845267;29;20217;-63
2022/04/23 08:12:13;;;;;;;9.10;6.93;;;9.00;99.90;;;;;;4843367;29;20295;-63
2022/04/23 08:14:44;;;;;;;9.25;7.60;;;8.90;99.90;;;;;;4841134;29;20482;-63
2022/04/23 08:17:15;;;;;;;9.77;7.95;;;8.90;99.90;;;;;;4848773;29;20202;-63
2022/04/23 08:19:46;;;;;;;8.27;7.47;;;8.90;99.90;;;;;;4849547;29;20212;-62
2022/04/23 08:22:17;;;;;;;8.47;6.90;;;8.80;99.90;;;;;;4850954;29;20481;-62
2022/04/23 08:24:48;;;;;;;9.80;7.15;;;8.80;99.90;;;;;;4844866;29;20470;-63
2022/04/23 08:27:21;;;;;;;9.45;7.50;;;8.80;99.90;;;;;;4843575;29;20280;-62
2022/04/23 08:32:40;;;;;;;9.05;7.07;;;8.70;99.90;;;;;;4838778;29;20228;-63
2022/04/23 08:35:11;;;;;;;14.23;7.78;;;8.70;99.90;;;;;;4846139;29;20228;-62
2022/04/23 08:37:41;;;;;;;10.30;7.15;;;8.60;99.90;;;;;;4848082;29;20214;-63
2022/04/23 08:40:15;;;;;;;10.40;7.35;;;8.50;99.90;;;;;;4845510;29;20299;-62
2022/04/23 08:42:47;;;;;;;8.93;7.45;;;8.50;99.90;;;;;;4851962;29;20228;-62
2022/04/23 08:45:18;;;;;;;10.60;6.90;;;8.40;99.90;;;;;;4848452;29;20221;-63
2022/04/23 08:47:49;;;;;;;8.65;6.70;;;8.40;99.90;;;;;;4843109;29;20222;-63
2022/04/23 08:50:22;;;;;;;9.60;7.05;;;8.40;99.90;;;;;;4851496;29;20201;-63
2022/04/23 08:52:55;;;;;;;8.93;7.40;;;8.40;99.90;;;;;;4850465;29;20316;-62
2022/04/23 08:55:28;;;;;;;8.13;7.32;;;8.30;99.90;;;;;;4850681;29;20206;-63
2022/04/23 08:58:01;;;;;;;8.95;7.43;;;8.30;99.90;;;;;;4849154;29;20220;-62
2022/04/23 09:00:32;;;;;;;9.07;7.53;;;8.40;99.90;;;;;;4845302;29;20224;-62
2022/04/23 09:03:03;;;;;;;8.15;7.15;;;8.30;99.90;;;;;;4846959;29;20239;-63
2022/04/23 09:05:34;;;;;;;13.07;7.75;;;8.30;99.90;;;;;;4848627;29;20229;-62
2022/04/23 09:08:08;;;;;;;11.20;7.57;;;8.20;99.90;;;;;;4847015;29;20281;-62
2022/04/23 09:10:47;;;;;;;11.70;7.95;;;8.30;99.90;;;;;;4842844;29;20252;-63
2022/04/23 09:13:29;;;;;;;9.00;7.30;;;8.20;99.90;;;;;;4847062;29;20239;-63
2022/04/23 09:24:47;;;;;;;11.88;7.60;;;8.20;99.90;;;;;;4840205;29;20728;-62
2022/04/23 09:27:18;;;;;;;8.40;7.50;;;8.10;99.90;;;;;;4848846;29;20268;-63
2022/04/23 09:30:05;;;;;;;9.18;6.60;;;8.10;99.90;;;;;;4849341;29;20600;-63
2022/04/23 09:32:37;;;;;;;6.82;6.13;;;8.00;99.90;;;;;;4849559;29;20213;-63
2022/04/23 09:35:12;;;;;;;10.27;7.25;;;8.00;99.90;;;;;;4849347;29;20217;-62
2022/04/23 09:40:31;;;;;;;9.93;6.60;;;7.80;99.90;;;;;;4834616;29;20225;-63
2022/04/23 09:43:03;;;;;;;7.97;6.50;;;7.80;99.90;;;;;;4849579;29;20221;-63
2022/04/23 09:45:41;;;;;;;9.18;6.28;;;7.70;99.90;;;;;;4849621;29;20216;-63
2022/04/23 09:48:19;;;;;;;7.93;7.13;;;7.60;99.90;;;;;;4847757;29;20209;-63
2022/04/23 09:50:51;;;;;;;9.30;6.53;;;7.50;99.90;;;;;;4849512;29;20288;-63
2022/04/23 09:53:22;;;;;;;6.63;5.90;;;7.40;99.90;;;;;;4847590;29;20213;-63
2022/04/23 09:55:53;;;;;;;10.30;7.97;;;7.50;99.90;;;;;;4847752;29;20220;-63
2022/04/23 09:58:26;;;;;;;12.00;7.15;;;7.50;99.90;;;;;;4839292;29;20210;-63
2022/04/23 10:00:59;;;;;;;7.40;6.38;;;7.40;99.90;;;;;;4840511;29;20210;-64
2022/04/23 10:03:31;;;;;;;7.53;6.22;;;7.40;99.90;;;;;;4837199;29;20244;-63
2022/04/23 10:06:03;;;;;;;8.00;6.57;;;7.40;99.90;;;;;;4840326;29;20209;-63
2022/04/23 10:08:35;;;;;;;9.57;6.60;;;7.30;99.90;;;;;;4840080;29;20222;-63
2022/04/23 10:11:13;;;;;;;10.05;6.40;;;7.30;99.90;;;;;;4844821;29;20233;-63
2022/04/23 10:13:46;;;;;;;9.50;6.55;;;7.20;99.90;;;;;;4846070;29;20218;-63
2022/04/23 10:16:19;;;;;;;7.40;6.63;;;7.20;99.90;;;;;;4844875;29;20205;-63
2022/04/23 10:18:53;;;;;;;9.52;6.60;;;7.20;99.90;;;;;;4850157;29;20209;-63
2022/04/23 10:21:32;;;;;;;9.40;6.68;;;7.10;99.90;;;;;;4849579;29;20222;-63
2022/04/23 10:24:09;;;;;;;8.55;7.40;;;7.10;99.90;;;;;;4847507;29;20236;-63
2022/04/23 10:26:50;;;;;;;10.38;6.70;;;7.10;99.90;;;;;;4850492;29;20232;-63
2022/04/23 10:29:25;;;;;;;10.13;6.85;;;7.10;99.90;;;;;;4848386;29;20221;-63
2022/04/23 10:32:22;;;;;;;8.95;6.82;;;7.10;99.90;;;;;;4848807;29;20280;-63
2022/04/23 10:34:54;;;;;;;7.75;6.30;;;7.00;99.90;;;;;;4850530;29;20209;-64
2022/04/23 10:37:27;;;;;;;7.65;6.85;;;7.00;99.90;;;;;;4849937;29;20209;-64
2022/04/23 10:40:16;;;;;;;12.15;7.05;;;6.90;99.90;;;;;;4849058;29;20220;-64
2022/04/23 10:43:09;;;;;;;8.20;6.60;;;6.90;99.90;;;;;;4849231;29;20236;-63
2022/04/23 10:45:41;;;;;;;10.85;6.63;;;6.80;99.90;;;;;;4839343;29;20255;-63
2022/04/23 10:48:27;;;;;;;8.85;6.90;;;6.80;99.90;;;;;;4838350;29;20217;-63
2022/04/23 10:51:15;;;;;;;10.35;8.18;;;6.70;99.90;;;;;;4843052;29;20594;-63
2022/04/23 10:53:59;;;;;;;7.80;6.57;;;6.70;99.90;;;;;;4847980;29;20206;-64
2022/04/23 10:56:37;;;;;;;7.57;6.82;;;6.60;99.90;;;;;;4847221;29;20297;-64
2022/04/23 10:59:35;;;;;;;7.97;6.95;;;6.60;99.90;;;;;;4842616;29;20217;-64
2022/04/23 11:02:07;;;;;;;9.45;7.07;;;6.60;99.90;;;;;;4840189;29;20291;-63
2022/04/23 11:12:14;;;;;;;10.02;7.80;;;6.70;99.90;;;;;;4848709;29;20225;-63
2022/04/23 11:13:34;;;;;;;7.47;6.43;;;6.80;99.90;;;;;;4840363;29;20265;-64
2022/04/23 11:16:09;;;;;;;9.35;8.00;;;6.80;99.90;;;;;;4837319;29;20236;-63
2022/04/23 11:18:42;;;;;;;14.55;7.40;;;6.70;99.90;;;;;;4847101;29;20612;-64
2022/04/23 11:21:19;;;;;;;9.63;7.22;;;6.70;99.90;;;;;;4846410;29;20229;-64
2022/04/23 11:23:50;;;;;;;7.75;6.72;;;6.70;99.90;;;;;;4848016;29;20226;-63
2022/04/23 11:26:22;;;;;;;11.73;7.43;;;6.70;99.90;;;;;;4848194;29;20326;-64
2022/04/23 11:29:00;;;;;;;8.18;7.43;;;6.70;99.90;;;;;;4846186;29;20202;-63
2022/04/23 11:31:31;;;;;;;10.38;8.02;;;6.70;99.90;;;;;;4848047;29;20292;-63
2022/04/23 11:34:02;;;;;;;8.70;7.30;;;6.70;99.90;;;;;;4850512;29;20213;-64
2022/04/23 11:36:36;;;;;;;9.23;6.75;;;6.60;99.90;;;;;;4852177;29;20214;-63
2022/04/23 11:39:09;;;;;;;9.30;7.47;;;6.60;99.90;;;;;;4851168;29;20224;-64
2022/04/23 11:41:41;;;;;;;7.82;6.28;;;6.60;99.90;;;;;;4849512;29;20217;-64
2022/04/23 11:44:16;;;;;;;8.85;6.80;;;6.60;99.90;;;;;;4852340;29;20281;-63
2022/04/23 11:46:48;;;;;;;7.88;7.07;;;6.60;99.90;;;;;;4844201;29;20229;-64
2022/04/23 11:49:27;;;;;;;7.93;6.35;;;6.50;99.90;;;;;;4851002;29;20275;-63
2022/04/23 11:52:07;;;;;;;8.80;6.20;;;6.50;99.90;;;;;;4851178;29;20217;-63
2022/04/23 11:54:39;;;;;;;7.80;6.82;;;6.40;99.90;;;;;;4849398;29;20277;-63
2022/04/23 11:57:11;;;;;;;10.70;7.05;;;6.30;99.90;;;;;;4837780;29;20225;-63
2022/04/23 11:59:43;;;;;;;8.23;7.38;;;6.20;99.90;;;;;;4843572;29;20205;-62
2022/04/23 12:02:21;;;;;;;7.60;6.90;;;6.10;99.90;;;;;;4840522;29;20206;-64
2022/04/23 12:04:53;;;;;;;9.05;7.03;;;6.10;99.90;;;;;;4847635;29;20262;-63
2022/04/23 12:07:27;;;;;;;8.63;7.00;;;6.10;99.90;;;;;;4851701;29;20213;-64
2022/04/23 12:09:59;;;;;;;7.75;6.50;;;6.10;99.90;;;;;;4850640;29;20209;-63
2022/04/23 12:12:31;;;;;;;8.88;7.10;;;6.00;99.90;;;;;;4835756;29;20233;-63
2022/04/23 12:15:06;;;;;;;8.93;7.00;;;6.00;99.90;;;;;;4841006;29;20206;-63
2022/04/23 12:17:47;;;;;;;10.55;7.72;;;6.00;99.90;;;;;;4844469;29;20198;-63
2022/04/23 12:20:19;;;;;;;7.80;7.00;;;6.00;99.90;;;;;;4844020;29;20663;-63
2022/04/23 12:23:02;;;;;;;10.07;6.70;;;6.00;99.90;;;;;;4836212;29;20227;-63
2022/04/23 12:25:34;;;;;;;8.80;6.72;;;6.00;99.90;;;;;;4838150;29;20238;-63
2022/04/23 12:40:43;;;;;;;10.68;6.45;;;6.10;99.90;;;;;;4845910;29;20269;-63
2022/04/23 12:42:52;;;;;;;6.82;6.05;;;6.00;99.90;;;;;;4742248;30;20213;-63
2022/04/23 12:45:24;;;;;;;7.22;6.50;;;5.90;99.90;;;;;;4739819;30;20260;-64
2022/04/23 12:48:07;;;;;;;9.57;6.25;;;6.00;99.90;;;;;;4741035;30;20205;-63
2022/04/23 12:50:37;;;;;;;11.38;6.63;;;5.90;99.90;;;;;;4740954;30;20221;-63
2022/04/23 12:53:08;;;;;;;10.07;6.38;;;5.90;99.90;;;;;;4741139;30;20213;-63
2022/04/23 12:55:52;;;;;;;10.73;6.78;;;5.90;99.90;;;;;;4741057;30;20217;-63
2022/04/23 12:58:22;;;;;;;12.65;6.90;;;5.90;99.90;;;;;;4740969;30;20228;-63
2022/04/23 13:00:53;;;;;;;9.35;6.10;;;5.90;99.90;;;;;;4731872;30;20308;-63
2022/04/23 13:03:32;;;;;;;8.23;6.30;;;5.80;99.90;;;;;;4740626;30;20221;-63
2022/04/23 13:06:04;;;;;;;8.32;5.35;;;5.80;99.90;;;;;;4740770;30;20237;-63
2022/04/23 13:08:55;;;;;;;10.07;5.45;;;5.80;99.90;;;;;;4786315;29;20231;-63
2022/04/23 13:11:27;;;;;;;7.50;5.72;;;5.80;99.90;;;;;;4846167;29;20324;-63
2022/04/23 13:14:00;;;;;;;10.38;5.93;;;5.80;99.90;;;;;;4847955;29;20385;-63
2022/04/23 13:16:32;;;;;;;8.77;5.65;;;5.80;99.90;;;;;;4848834;29;20214;-64
2022/04/23 13:19:04;;;;;;;7.38;5.10;;;5.80;99.90;;;;;;4839259;29;20210;-63
2022/04/23 13:21:36;;;;;;;6.90;5.20;;;5.90;99.90;;;;;;4843102;29;20217;-63
2022/04/23 13:24:08;;;;;;;9.40;6.68;;;5.90;99.90;;;;;;4835210;29;20218;-63
2022/04/23 13:26:41;;;;;;;8.10;5.55;;;5.90;99.90;;;;;;4848321;29;20233;-63
2022/04/23 13:29:11;;;;;;;6.32;4.95;;;5.80;99.90;;;;;;4847814;29;20261;-63
2022/04/23 13:31:42;;;;;;;7.60;5.00;;;5.90;99.90;;;;;;4841704;29;20213;-64
2022/04/23 13:34:13;;;;;;;7.55;6.13;;;5.90;99.90;;;;;;4850387;29;20212;-64
2022/04/23 13:36:44;;;;;;;8.15;5.30;;;5.90;99.90;;;;;;4848864;29;20219;-63
2022/04/23 13:39:15;;;;;;;12.65;5.47;;;6.00;99.90;;;;;;4838242;29;20225;-63
2022/04/23 13:41:49;;;;;;;6.10;5.25;;;6.00;99.90;;;;;;4845542;29;20403;-63
2022/04/23 13:44:19;;;;;;;10.60;5.47;;;5.90;99.90;;;;;;4838405;29;20213;-63
2022/04/23 13:46:51;;;;;;;8.82;7.80;;;6.00;99.90;;;;;;4840582;29;20225;-64
2022/04/23 13:49:23;;;;;;;7.22;5.60;;;6.10;99.90;;;;;;4848807;29;20197;-64
2022/04/23 13:51:54;;;;;;;7.05;5.53;;;6.10;99.90;;;;;;4852046;29;20206;-63
2022/04/23 13:54:26;;;;;;;10.30;5.35;;;6.10;99.90;;;;;;4843599;29;20206;-63
2022/04/23 13:57:00;;;;;;;7.03;5.32;;;6.20;99.90;;;;;;4834876;29;20226;-64
2022/04/23 13:59:33;;;;;;;8.15;6.28;;;6.30;99.90;;;;;;4834014;29;20210;-63
2022/04/23 14:10:28;;;;;;;5.72;5.22;;;6.70;99.90;;;;;;4839976;29;20237;-63